createdAt,value
2018-11-11T00:02:14.082Z,100287.03
2018-11-11T00:04:40.118Z,100282.27
2018-11-11T00:07:06.123Z,100285.45
2018-11-11T00:09:32.170Z,100276.85
2018-11-11T00:11:58.172Z,100291.53
2018-11-11T00:14:24.214Z,100294.23
2018-11-11T00:16:50.214Z,100290.50
2018-11-11T00:19:16.262Z,100282.93
2018-11-11T00:21:42.313Z,100286.99
2018-11-11T00:24:08.302Z,100290.83
2018-11-11T00:26:34.298Z,100289.80
2018-11-11T00:29:00.226Z,100295.77
2018-11-11T00:31:26.277Z,100285.83
2018-11-11T00:33:52.274Z,100288.53
2018-11-11T00:36:18.319Z,100295.30
2018-11-11T00:38:44.318Z,100290.22
2018-11-11T00:41:10.362Z,100289.19
2018-11-11T00:43:36.362Z,100301.05
2018-11-11T00:46:02.414Z,100294.05
2018-11-11T00:48:28.409Z,100288.97
2018-11-11T00:50:54.454Z,100293.58
2018-11-11T00:53:20.463Z,100302.03
2018-11-11T00:55:46.826Z,100299.88
2018-11-11T00:58:12.806Z,100304.27
2018-11-11T01:00:38.853Z,100305.39
2018-11-11T01:03:04.854Z,100306.97
2018-11-11T01:05:30.918Z,100311.58
2018-11-11T01:07:56.903Z,100302.44
2018-11-11T01:10:22.929Z,100307.63
2018-11-11T01:12:48.970Z,100307.70
2018-11-11T01:15:14.970Z,100314.94
2018-11-11T01:17:41.019Z,100314.17
2018-11-11T01:20:07.134Z,100322.30
2018-11-11T01:22:33.167Z,100317.98
2018-11-11T01:24:59.167Z,100313.69
2018-11-11T01:27:25.214Z,100314.80
2018-11-11T01:29:51.210Z,100309.38
2018-11-11T01:32:17.251Z,100301.03
2018-11-11T01:34:43.262Z,100306.45
2018-11-11T01:37:09.302Z,100308.68
2018-11-11T01:39:35.302Z,100315.45
2018-11-11T01:42:01.352Z,100304.11
2018-11-11T01:44:27.352Z,100304.36
2018-11-11T01:46:53.530Z,100312.23
2018-11-11T01:49:19.493Z,100314.17
2018-11-11T01:51:45.528Z,100314.72
2018-11-11T01:54:11.566Z,100311.31
2018-11-11T01:56:37.562Z,100304.22
2018-11-11T01:59:03.630Z,100306.70
2018-11-11T02:01:29.614Z,100303.99
2018-11-11T02:03:55.671Z,100295.06
2018-11-11T02:06:21.667Z,100294.59
2018-11-11T02:08:47.706Z,100300.00
2018-11-11T02:11:13.714Z,100298.43
2018-11-11T02:13:39.754Z,100290.86
2018-11-11T02:16:05.751Z,100291.41
2018-11-11T02:18:31.798Z,100277.17
2018-11-11T02:20:57.827Z,100282.84
2018-11-11T02:23:23.915Z,100277.43
2018-11-11T02:25:49.849Z,100286.65
2018-11-11T02:28:15.866Z,100285.30
2018-11-11T02:30:41.910Z,100287.52
2018-11-11T02:33:07.911Z,100287.78
2018-11-11T02:35:33.961Z,100294.30
2018-11-11T02:37:59.958Z,100295.64
2018-11-11T02:40:26.003Z,100293.27
2018-11-11T02:42:52.003Z,100298.94
2018-11-11T02:45:18.047Z,100293.04
2018-11-11T02:47:44.057Z,100292.23
2018-11-11T02:50:10.103Z,100297.42
2018-11-11T02:52:36.094Z,100298.78
2018-11-11T02:55:02.152Z,100293.59
2018-11-11T02:57:28.147Z,100295.84
2018-11-11T02:59:54.191Z,100297.28
2018-11-11T03:02:20.190Z,100299.91
2018-11-11T03:04:46.241Z,100298.85
2018-11-11T03:07:12.234Z,100300.53
2018-11-11T03:09:38.289Z,100301.88
2018-11-11T03:12:04.282Z,100301.66
2018-11-11T03:14:30.302Z,100295.22
2018-11-11T03:16:56.351Z,100297.60
2018-11-11T03:19:22.350Z,100293.31
2018-11-11T03:21:48.394Z,100291.70
2018-11-11T03:24:14.394Z,100279.53
2018-11-11T03:26:40.436Z,100275.80
2018-11-11T03:29:06.438Z,100287.42
2018-11-11T03:31:32.488Z,100290.13
2018-11-11T03:33:58.486Z,100287.75
2018-11-11T03:36:24.523Z,100293.72
2018-11-11T03:38:50.539Z,100288.30
2018-11-11T03:41:16.582Z,100292.69
2018-11-11T03:43:42.588Z,100291.56
2018-11-11T03:46:08.634Z,100294.04
2018-11-11T03:48:34.626Z,100289.98
2018-11-11T03:51:00.650Z,100287.60
2018-11-11T03:53:26.703Z,100290.30
2018-11-11T03:55:52.720Z,100286.25
2018-11-11T03:58:18.742Z,100284.89
2018-11-11T04:00:44.747Z,100292.79
2018-11-11T04:03:10.828Z,100293.12
2018-11-11T04:05:36.786Z,100293.89
2018-11-11T04:08:02.835Z,100297.95
2018-11-11T04:10:28.867Z,100303.13
2018-11-11T04:12:54.894Z,100308.55
2018-11-11T04:15:20.880Z,100312.61
2018-11-11T04:17:46.922Z,100303.78
2018-11-11T04:20:12.923Z,100314.28
2018-11-11T04:22:38.962Z,100315.63
2018-11-11T04:25:05.087Z,100308.06
2018-11-11T04:27:31.098Z,100309.97
2018-11-11T04:29:57.147Z,100307.27
2018-11-11T04:32:23.146Z,100302.98
2018-11-11T04:34:49.191Z,100299.47
2018-11-11T04:37:15.190Z,100291.36
2018-11-11T04:39:41.244Z,100302.17
2018-11-11T04:42:07.229Z,100297.34
2018-11-11T04:44:33.279Z,100289.23
2018-11-11T04:46:59.282Z,100294.38
2018-11-11T04:49:25.332Z,100285.49
2018-11-11T04:51:51.322Z,100291.67
2018-11-11T04:54:17.388Z,100299.57
2018-11-11T04:56:43.368Z,100296.31
2018-11-11T04:59:09.410Z,100296.06
2018-11-11T05:01:35.497Z,100303.62
2018-11-11T05:04:01.467Z,100312.62
2018-11-11T05:06:27.466Z,100313.09
2018-11-11T05:08:53.487Z,100304.27
2018-11-11T05:11:19.538Z,100309.11
2018-11-11T05:13:45.530Z,100310.72
2018-11-11T05:16:11.587Z,100299.64
2018-11-11T05:18:37.579Z,100301.57
2018-11-11T05:21:03.626Z,100307.53
2018-11-11T05:23:29.635Z,100299.97
2018-11-11T05:25:55.679Z,100297.26
2018-11-11T05:28:21.674Z,100305.95
2018-11-11T05:30:47.775Z,100312.46
2018-11-11T05:33:13.722Z,100320.83
2018-11-11T05:35:39.766Z,100322.19
2018-11-11T05:38:05.762Z,100320.58
2018-11-11T05:40:31.810Z,100320.58
2018-11-11T05:42:57.814Z,100321.16
2018-11-11T05:45:23.866Z,100320.09
2018-11-11T05:47:49.863Z,100323.86
2018-11-11T05:50:15.896Z,100325.77
2018-11-11T05:52:41.924Z,100323.06
2018-11-11T05:55:07.922Z,100322.58
2018-11-11T05:57:33.970Z,100323.38
2018-11-11T05:59:59.975Z,100322.58
2018-11-11T06:02:26.014Z,100320.74
2018-11-11T06:04:52.019Z,100323.70
2018-11-11T06:07:18.063Z,100329.11
2018-11-11T06:09:44.061Z,100336.65
2018-11-11T06:12:10.102Z,100337.23
2018-11-11T06:14:36.110Z,100341.03
2018-11-11T06:17:02.157Z,100342.96
2018-11-11T06:19:28.155Z,100331.11
2018-11-11T06:21:54.198Z,100342.70
2018-11-11T06:24:20.211Z,100335.17
2018-11-11T06:26:46.250Z,100332.46
2018-11-11T06:29:12.250Z,100334.37
2018-11-11T06:31:38.274Z,100330.38
2018-11-11T06:34:04.374Z,100336.04
2018-11-11T06:36:30.317Z,100337.94
2018-11-11T06:38:56.358Z,100342.80
2018-11-11T06:41:22.358Z,100343.90
2018-11-11T06:43:48.410Z,100344.16
2018-11-11T06:46:14.402Z,100356.88
2018-11-11T06:48:40.450Z,100344.38
2018-11-11T06:51:06.454Z,100349.24
2018-11-11T06:53:32.550Z,100352.66
2018-11-11T06:55:58.498Z,100352.55
2018-11-11T06:58:24.542Z,100346.27
2018-11-11T07:00:50.542Z,100355.42
2018-11-11T07:03:22.262Z,100345.88
2018-11-11T07:05:48.236Z,100342.05
2018-11-11T07:08:14.246Z,100338.73
2018-11-11T07:10:40.293Z,100343.34
2018-11-11T07:13:06.294Z,100338.95
2018-11-11T07:15:32.338Z,100336.47
2018-11-11T07:17:58.338Z,100341.02
2018-11-11T07:20:24.381Z,100348.80
2018-11-11T07:22:50.390Z,100345.30
2018-11-11T07:25:16.431Z,100347.12
2018-11-11T07:27:42.439Z,100355.25
2018-11-11T07:30:08.475Z,100351.41
2018-11-11T07:32:34.474Z,100354.59
2018-11-11T07:35:00.522Z,100356.98
2018-11-11T07:37:26.522Z,100350.47
2018-11-11T07:39:52.562Z,100364.55
2018-11-11T07:42:18.602Z,100367.26
2018-11-11T07:44:44.590Z,100368.12
2018-11-11T07:47:10.642Z,100368.12
2018-11-11T07:49:36.639Z,100373.15
2018-11-11T07:52:02.730Z,100375.20
2018-11-11T07:54:28.682Z,100380.63
2018-11-11T07:56:54.740Z,100375.28
2018-11-11T07:59:20.736Z,100374.02
2018-11-11T08:01:46.832Z,100375.92
2018-11-11T08:04:12.774Z,100375.59
2018-11-11T08:06:38.822Z,100389.39
2018-11-11T08:09:05.254Z,100388.68
2018-11-11T08:11:36.994Z,100386.68
2018-11-11T08:14:03.014Z,100381.97
2018-11-11T08:16:29.091Z,100379.87
2018-11-11T08:18:55.058Z,100384.57
2018-11-11T08:21:21.103Z,100385.75
2018-11-11T08:23:47.106Z,100388.29
2018-11-11T08:26:13.126Z,100387.45
2018-11-11T08:28:39.178Z,100400.48
2018-11-11T08:31:05.170Z,100399.68
2018-11-11T08:33:31.218Z,100396.80
2018-11-11T08:35:57.218Z,100397.85
2018-11-11T08:38:23.262Z,100392.78
2018-11-11T08:40:49.268Z,100394.55
2018-11-11T08:43:15.309Z,100397.80
2018-11-11T08:45:41.314Z,100403.15
2018-11-11T08:48:07.399Z,100402.75
2018-11-11T08:50:33.350Z,100406.87
2018-11-11T08:52:59.306Z,100406.39
2018-11-11T08:55:25.301Z,100404.62
2018-11-11T08:57:51.397Z,100405.65
2018-11-11T09:00:17.458Z,100407.70
2018-11-11T09:02:43.494Z,100408.50
2018-11-11T09:05:09.498Z,100412.71
2018-11-11T09:07:35.538Z,100413.73
2018-11-11T09:10:01.546Z,100410.83
2018-11-11T09:12:27.588Z,100412.11
2018-11-11T09:14:53.586Z,100408.81
2018-11-11T09:17:19.669Z,100407.34
2018-11-11T09:19:45.650Z,100407.98
2018-11-11T09:22:11.661Z,100422.73
2018-11-11T09:24:37.702Z,100408.75
2018-11-11T09:27:03.937Z,100419.49
2018-11-11T09:29:29.966Z,100413.87
2018-11-11T09:31:55.966Z,100419.57
2018-11-11T09:34:21.998Z,100422.28
2018-11-11T09:36:48.014Z,100433.91
2018-11-11T09:39:14.126Z,100435.95
2018-11-11T09:41:40.046Z,100424.55
2018-11-11T09:44:06.107Z,100428.28
2018-11-11T09:46:32.098Z,100426.16
2018-11-11T09:48:58.115Z,100421.97
2018-11-11T09:51:24.162Z,100422.48
2018-11-11T09:53:50.231Z,100414.56
2018-11-11T09:56:16.208Z,100416.06
2018-11-11T09:58:42.262Z,100418.91
2018-11-11T10:01:08.258Z,100422.09
2018-11-11T10:03:34.258Z,100424.80
2018-11-11T10:06:00.298Z,100424.66
2018-11-11T10:08:26.310Z,100421.20
2018-11-11T10:10:52.358Z,100421.21
2018-11-11T10:13:18.351Z,100416.45
2018-11-11T10:15:44.369Z,100413.74
2018-11-11T10:18:10.414Z,100415.09
2018-11-11T10:20:36.448Z,100410.36
2018-11-11T10:23:02.458Z,100415.09
2018-11-11T10:25:28.462Z,100420.95
2018-11-11T10:27:54.518Z,100423.64
2018-11-11T10:30:21.517Z,100423.18
2018-11-11T10:32:53.376Z,100424.06
2018-11-11T10:35:19.311Z,100428.94
2018-11-11T10:37:45.358Z,100428.94
2018-11-11T10:40:11.366Z,100425.20
2018-11-11T10:42:37.403Z,100429.27
2018-11-11T10:45:03.530Z,100432.55
2018-11-11T10:47:29.572Z,100438.77
2018-11-11T10:49:55.554Z,100434.48
2018-11-11T10:52:21.598Z,100435.38
2018-11-11T10:54:47.599Z,100436.73
2018-11-11T10:57:13.658Z,100438.64
2018-11-11T10:59:39.642Z,100439.19
2018-11-11T11:02:05.667Z,100436.48
2018-11-11T11:04:31.710Z,100443.04
2018-11-11T11:06:57.705Z,100440.41
2018-11-11T11:09:23.654Z,100448.80
2018-11-11T11:11:49.659Z,100446.64
2018-11-11T11:14:15.702Z,100443.21
2018-11-11T11:16:41.730Z,100438.36
2018-11-11T11:19:07.752Z,100441.85
2018-11-11T11:21:33.750Z,100441.38
2018-11-11T11:23:59.810Z,100445.78
2018-11-11T11:26:25.795Z,100447.48
2018-11-11T11:28:51.834Z,100442.05
2018-11-11T11:31:17.857Z,100451.11
2018-11-11T11:33:43.872Z,100447.34
2018-11-11T11:36:09.911Z,100448.61
2018-11-11T11:38:35.910Z,100454.70
2018-11-11T11:41:01.964Z,100446.09
2018-11-11T11:43:27.959Z,100444.52
2018-11-11T11:45:54.006Z,100440.67
2018-11-11T11:48:20.002Z,100439.09
2018-11-11T11:50:46.050Z,100434.08
2018-11-11T11:53:12.049Z,100435.98
2018-11-11T11:55:38.102Z,100437.02
2018-11-11T11:58:19.133Z,100440.86
2018-11-11T12:00:45.126Z,100436.23
2018-11-11T12:03:11.094Z,100435.22
2018-11-11T12:05:37.138Z,100434.97
2018-11-11T12:08:03.139Z,100439.72
2018-11-11T12:10:29.182Z,100433.28
2018-11-11T12:12:55.186Z,100424.78
2018-11-11T12:15:21.211Z,100427.49
2018-11-11T12:17:47.254Z,100428.88
2018-11-11T12:20:13.254Z,100431.01
2018-11-11T12:22:39.298Z,100429.66
2018-11-11T12:25:05.298Z,100437.18
2018-11-11T12:27:31.351Z,100427.33
2018-11-11T12:29:57.351Z,100421.55
2018-11-11T12:32:23.402Z,100422.23
2018-11-11T12:34:49.394Z,100418.63
2018-11-11T12:37:15.450Z,100421.23
2018-11-11T12:39:41.560Z,100422.59
2018-11-11T12:42:07.483Z,100423.48
2018-11-11T12:44:33.551Z,100426.52
2018-11-11T12:46:59.669Z,100433.41
2018-11-11T12:49:25.531Z,100433.55
2018-11-11T12:51:51.582Z,100442.35
2018-11-11T12:54:17.575Z,100441.44
2018-11-11T12:56:43.602Z,100453.09
2018-11-11T12:59:09.651Z,100461.34
2018-11-11T13:01:35.646Z,100464.93
2018-11-11T13:04:01.690Z,100450.56
2018-11-11T13:06:27.691Z,100451.70
2018-11-11T13:08:53.770Z,100446.14
2018-11-11T13:11:19.794Z,100453.39
2018-11-11T13:13:45.791Z,100457.86
2018-11-11T13:16:11.787Z,100462.81
2018-11-11T13:18:37.831Z,100462.38
2018-11-11T13:21:03.946Z,100449.91
2018-11-11T13:23:29.974Z,100441.27
2018-11-11T13:25:55.983Z,100459.84
2018-11-11T13:28:22.022Z,100467.98
2018-11-11T13:30:48.022Z,100479.19
2018-11-11T13:33:14.070Z,100465.41
2018-11-11T13:35:40.101Z,100474.76
2018-11-11T13:38:06.214Z,100475.86
2018-11-11T13:40:32.154Z,100467.03
2018-11-11T13:42:58.143Z,100471.97
2018-11-11T13:45:24.186Z,100471.97
2018-11-11T13:47:50.182Z,100471.34
2018-11-11T13:50:16.289Z,100472.45
2018-11-11T13:52:42.232Z,100483.30
2018-11-11T13:55:08.288Z,100477.83
2018-11-11T13:57:34.275Z,100477.28
2018-11-11T14:00:00.322Z,100485.92
2018-11-11T14:02:26.332Z,100486.29
2018-11-11T14:04:52.375Z,100489.78
2018-11-11T14:07:18.374Z,100499.73
2018-11-11T14:09:44.435Z,100499.52
2018-11-11T14:12:10.419Z,100495.45
2018-11-11T14:14:36.440Z,100497.86
2018-11-11T14:17:02.481Z,100508.30
2018-11-11T14:19:28.557Z,100510.33
2018-11-11T14:21:54.530Z,100518.49
2018-11-11T14:24:20.534Z,100511.24
2018-11-11T14:26:46.785Z,100510.18
2018-11-11T14:29:12.574Z,100516.16
2018-11-11T14:31:38.618Z,100518.39
2018-11-11T14:34:04.845Z,100522.56
2018-11-11T14:36:30.874Z,100523.11
2018-11-11T14:38:56.878Z,100526.34
2018-11-11T14:41:22.914Z,100526.48
2018-11-11T14:43:48.919Z,100527.61
2018-11-11T14:46:15.064Z,100535.48
2018-11-11T14:48:40.970Z,100535.41
2018-11-11T14:51:07.013Z,100537.65
2018-11-11T14:53:33.010Z,100540.36
2018-11-11T14:55:59.038Z,100540.66
2018-11-11T14:58:25.172Z,100531.22
2018-11-11T15:00:51.080Z,100540.52
2018-11-11T15:03:17.134Z,100538.04
2018-11-11T15:05:43.133Z,100541.55
2018-11-11T15:08:09.260Z,100547.78
2018-11-11T15:10:35.174Z,100551.75
2018-11-11T15:13:01.278Z,100542.36
2018-11-11T15:15:27.222Z,100538.62
2018-11-11T15:17:53.262Z,100533.20
2018-11-11T15:20:19.361Z,100535.43
2018-11-11T15:22:45.310Z,100533.82
2018-11-11T15:25:11.329Z,100535.10
2018-11-11T15:27:37.358Z,100537.20
2018-11-11T15:30:03.889Z,100534.45
2018-11-11T15:32:29.902Z,100523.89
2018-11-11T15:34:55.942Z,100523.60
2018-11-11T15:37:21.943Z,100533.71
2018-11-11T15:39:47.983Z,100537.12
2018-11-11T15:42:14.018Z,100538.63
2018-11-11T15:44:40.029Z,100540.24
2018-11-11T15:47:06.847Z,100543.44
2018-11-11T15:49:32.910Z,100540.06
2018-11-11T15:51:58.910Z,100552.77
2018-11-11T15:54:24.937Z,100545.83
2018-11-11T15:56:50.942Z,100553.89
2018-11-11T15:59:17.066Z,100568.05
2018-11-11T16:01:42.990Z,100564.67
2018-11-11T16:04:09.035Z,100560.27
2018-11-11T16:06:35.049Z,100566.42
2018-11-11T16:09:01.092Z,100561.35
2018-11-11T16:11:27.074Z,100563.52
2018-11-11T16:13:53.154Z,100562.59
2018-11-11T16:16:19.146Z,100565.45
2018-11-11T16:18:45.170Z,100571.23
2018-11-11T16:21:11.195Z,100571.49
2018-11-11T16:23:37.257Z,100581.69
2018-11-11T16:26:03.256Z,100588.69
2018-11-11T16:28:29.239Z,100596.84
2018-11-11T16:30:55.291Z,100608.09
2018-11-11T16:33:21.290Z,100604.32
2018-11-11T16:35:47.335Z,100609.12
2018-11-11T16:38:13.331Z,100614.80
2018-11-11T16:40:39.389Z,100612.77
2018-11-11T16:43:05.378Z,100599.24
2018-11-11T16:45:31.431Z,100595.61
2018-11-11T16:47:57.498Z,100592.45
2018-11-11T16:50:23.878Z,100587.45
2018-11-11T16:52:49.959Z,100594.50
2018-11-11T16:55:15.960Z,100595.30
2018-11-11T16:57:41.951Z,100604.70
2018-11-11T17:00:08.682Z,100614.92
2018-11-11T17:02:34.709Z,100616.20
2018-11-11T17:05:00.715Z,100611.25
2018-11-11T17:07:26.759Z,100609.20
2018-11-11T17:09:52.762Z,100614.73
2018-11-11T17:12:18.815Z,100626.15
2018-11-11T17:14:44.803Z,100623.21
2018-11-11T17:17:10.855Z,100630.69
2018-11-11T17:19:36.858Z,100635.61
2018-11-11T17:22:03.137Z,100640.34
2018-11-11T17:24:28.898Z,100650.13
2018-11-11T17:26:54.942Z,100645.30
2018-11-11T17:29:20.992Z,100655.93
2018-11-11T17:31:47.006Z,100659.56
2018-11-11T17:34:12.986Z,100657.36
2018-11-11T17:36:39.023Z,100662.66
2018-11-11T17:39:07.063Z,100664.45
2018-11-11T17:41:33.059Z,100661.59
2018-11-11T17:43:59.046Z,100658.19
2018-11-11T17:46:25.057Z,100656.58
2018-11-11T17:48:51.249Z,100656.25
2018-11-11T17:51:17.094Z,100663.11
2018-11-11T17:53:43.155Z,100659.12
2018-11-11T17:56:09.194Z,100669.90
2018-11-11T17:58:35.190Z,100657.72
2018-11-11T18:01:01.248Z,100660.65
2018-11-11T18:03:27.345Z,100662.45
2018-11-11T18:05:53.246Z,100669.56
2018-11-11T18:08:19.279Z,100675.41
2018-11-11T18:10:45.377Z,100672.55
2018-11-11T18:13:11.333Z,100672.41
2018-11-11T18:15:37.331Z,100675.00
2018-11-11T18:18:03.616Z,100667.12
2018-11-11T18:20:29.599Z,100668.06
2018-11-11T18:22:55.607Z,100677.89
2018-11-11T18:25:21.651Z,100673.20
2018-11-11T18:27:47.664Z,100677.09
2018-11-11T18:30:14.464Z,100663.38
2018-11-11T18:32:40.415Z,100661.54
2018-11-11T18:35:07.289Z,100666.85
2018-11-11T18:37:33.274Z,100680.09
2018-11-11T18:39:59.361Z,100671.14
2018-11-11T18:42:25.387Z,100680.27
2018-11-11T18:44:51.367Z,100690.61
2018-11-11T18:47:17.378Z,100695.56
2018-11-11T18:49:43.399Z,100702.83
2018-11-11T18:52:09.454Z,100699.97
2018-11-11T18:54:35.434Z,100707.08
2018-11-11T18:57:01.507Z,100713.38
2018-11-11T18:59:27.490Z,100721.08
2018-11-11T19:01:53.526Z,100723.63
2018-11-11T19:04:19.542Z,100717.17
2018-11-11T19:06:45.574Z,100724.28
2018-11-11T19:09:11.578Z,100728.75
2018-11-11T19:11:37.618Z,100724.13
2018-11-11T19:14:03.643Z,100715.84
2018-11-11T19:16:29.662Z,100707.15
2018-11-11T19:18:55.778Z,100710.31
2018-11-11T19:21:21.715Z,100728.37
2018-11-11T19:23:47.781Z,100726.30
2018-11-11T19:26:13.735Z,100722.23
2018-11-11T19:28:39.779Z,100725.40
2018-11-11T19:31:05.783Z,100737.28
2018-11-11T19:33:31.837Z,100739.45
2018-11-11T19:35:57.831Z,100750.55
2018-11-11T19:38:23.983Z,100752.45
2018-11-11T19:40:49.985Z,100745.19
2018-11-11T19:43:16.023Z,100743.61
2018-11-11T19:45:42.026Z,100746.88
2018-11-11T19:48:08.114Z,100752.95
2018-11-11T19:50:34.075Z,100759.95
2018-11-11T19:53:00.131Z,100765.70
2018-11-11T19:55:26.118Z,100767.87
2018-11-11T19:57:52.169Z,100765.16
2018-11-11T20:00:19.302Z,100763.55
2018-11-11T20:02:45.357Z,100761.96
2018-11-11T20:05:11.343Z,100759.25
2018-11-11T20:07:37.365Z,100771.45
2018-11-11T20:10:04.155Z,100777.75
2018-11-11T20:12:30.126Z,100769.88
2018-11-11T20:14:56.166Z,100774.00
2018-11-11T20:17:22.216Z,100776.98
2018-11-11T20:19:48.219Z,100774.33
2018-11-11T20:22:14.215Z,100781.37
2018-11-11T20:24:40.308Z,100781.11
2018-11-11T20:27:06.263Z,100789.02
2018-11-11T20:29:32.313Z,100790.12
2018-11-11T20:31:58.303Z,100786.15
2018-11-11T20:34:24.350Z,100785.27
2018-11-11T20:36:50.350Z,100791.80
2018-11-11T20:39:16.406Z,100788.05
2018-11-11T20:41:42.398Z,100763.19
2018-11-11T20:44:08.418Z,100766.45
2018-11-11T20:46:34.482Z,100790.70
2018-11-11T20:49:00.467Z,100790.38
2018-11-11T20:51:26.514Z,100794.93
2018-11-11T20:53:52.524Z,100782.56
2018-11-11T20:56:18.562Z,100778.01
2018-11-11T20:58:44.559Z,100793.41
2018-11-11T21:01:10.602Z,100817.81
2018-11-11T21:03:36.657Z,100824.37
2018-11-11T21:06:02.646Z,100814.39
2018-11-11T21:08:28.647Z,100795.15
2018-11-11T21:10:54.699Z,100811.74
2018-11-11T21:13:20.699Z,100812.55
2018-11-11T21:15:46.746Z,100819.65
2018-11-11T21:18:12.738Z,100818.84
2018-11-11T21:20:38.802Z,100815.91
2018-11-11T21:23:04.920Z,100805.05
2018-11-11T21:25:30.979Z,100805.05
2018-11-11T21:27:56.959Z,100801.54
2018-11-11T21:30:22.962Z,100811.34
2018-11-11T21:32:49.014Z,100832.23
2018-11-11T21:35:15.002Z,100841.72
2018-11-11T21:37:41.085Z,100851.39
2018-11-11T21:40:07.790Z,100851.39
2018-11-11T21:42:33.818Z,100848.69
2018-11-11T21:44:59.810Z,100840.84
2018-11-11T21:47:25.862Z,100836.55
2018-11-11T21:49:51.858Z,100844.67
2018-11-11T21:52:17.906Z,100841.02
2018-11-11T21:54:43.911Z,100811.75
2018-11-11T21:57:09.950Z,100797.13
2018-11-11T21:59:35.951Z,100793.38
2018-11-11T22:02:02.016Z,100818.23
2018-11-11T22:04:28.019Z,100832.11
2018-11-11T22:06:54.026Z,100822.39
2018-11-11T22:09:20.098Z,100815.71
2018-11-11T22:11:46.144Z,100825.97
2018-11-11T22:14:12.118Z,100828.20
2018-11-11T22:16:38.118Z,100832.84
2018-11-11T22:19:04.162Z,100844.31
2018-11-11T22:21:30.165Z,100863.75
2018-11-11T22:23:56.203Z,100866.78
2018-11-11T22:26:22.204Z,100852.19
2018-11-11T22:28:48.247Z,100853.63
2018-11-11T22:31:14.249Z,100853.86
2018-11-11T22:33:40.294Z,100860.41
2018-11-11T22:36:06.296Z,100864.80
2018-11-11T22:38:32.354Z,100874.28
2018-11-11T22:40:58.338Z,100862.40
2018-11-11T22:43:24.370Z,100872.66
2018-11-11T22:45:50.410Z,100868.14
2018-11-11T22:48:16.412Z,100868.14
2018-11-11T22:50:42.462Z,100869.23
2018-11-11T22:53:08.458Z,100874.97
2018-11-11T22:55:34.503Z,100876.64
2018-11-11T22:58:00.562Z,100882.88
2018-11-11T23:00:26.551Z,100886.44
2018-11-11T23:02:52.554Z,100881.34
2018-11-11T23:05:18.600Z,100889.23
2018-11-11T23:07:44.594Z,100883.24
2018-11-11T23:10:10.646Z,100893.85
2018-11-11T23:12:36.648Z,100896.56
2018-11-11T23:15:02.979Z,100904.20
2018-11-11T23:17:28.997Z,100907.77
2018-11-11T23:19:55.070Z,100916.39
2018-11-11T23:22:21.043Z,100912.95
2018-11-11T23:24:47.062Z,100910.02
2018-11-11T23:27:13.114Z,100915.44
2018-11-11T23:29:39.122Z,100910.02
2018-11-11T23:32:05.190Z,100919.23
2018-11-11T23:34:31.150Z,100914.13
2018-11-11T23:36:57.280Z,100911.42
2018-11-11T23:39:23.202Z,100927.45
2018-11-11T23:41:49.251Z,100925.05
2018-11-11T23:44:15.250Z,100926.95
2018-11-11T23:46:41.303Z,100928.63
2018-11-11T23:49:07.298Z,100932.92
2018-11-11T23:51:33.338Z,100931.33
2018-11-11T23:53:59.338Z,100937.84
2018-11-11T23:56:25.386Z,100943.84
2018-11-11T23:58:51.386Z,100953.87
